Terminal Aerodrome Forecast
Issued by NWS Memphis, TN

Home | Current Version | Previous Version | Text Only | Print | Product List | Glossary On
Versions: 1 2 3 4 5 6 7 8 9 10 11 12 13 14 15 16 17 18 19 20 21 22 23 24 25 26 27 28
855
FTUS44 KMEG 210832 AAA
TAFMEM
TAF AMD
KMEM 210832Z 2109/2212 18010KT P6SM FEW025 BKN050
     FM211000 18012KT P6SM BKN025
     FM211200 18011KT P6SM OVC015
     FM212200 17010KT P6SM SCT025 BKN060
     FM220300 16013G20KT P6SM BKN040
     FM220900 17017G26KT P6SM VCSH BKN025=

USA.gov is the U.S. government's official web portal to all federal, state and local government web resources and services.